sensor_id;sensor_type;location;lat;lon;timestamp;P1;durP1;ratioP1;P2;durP2;ratioP2
20161;SDS011;51382;53.180;15.414;2023-02-23T00:13:13;59.90;;;11.30;;
20161;SDS011;51382;53.180;15.414;2023-02-23T00:28:24;60.80;;;9.80;;
20161;SDS011;51382;53.180;15.414;2023-02-23T00:43:37;68.40;;;8.80;;
20161;SDS011;51382;53.180;15.414;2023-02-23T00:58:51;56.80;;;10.30;;
20161;SDS011;51382;53.180;15.414;2023-02-23T01:14:03;57.60;;;9.90;;
20161;SDS011;51382;53.180;15.414;2023-02-23T01:29:16;56.00;;;9.50;;
20161;SDS011;51382;53.180;15.414;2023-02-23T02:00:13;58.90;;;9.50;;
20161;SDS011;51382;53.180;15.414;2023-02-23T02:15:34;53.90;;;9.50;;
20161;SDS011;51382;53.180;15.414;2023-02-23T02:31:30;55.90;;;10.50;;
20161;SDS011;51382;53.180;15.414;2023-02-23T02:46:42;55.70;;;8.20;;
20161;SDS011;51382;53.180;15.414;2023-02-23T03:02:00;53.20;;;9.40;;
20161;SDS011;51382;53.180;15.414;2023-02-23T03:17:35;65.60;;;10.10;;
20161;SDS011;51382;53.180;15.414;2023-02-23T03:33:09;53.60;;;8.20;;
20161;SDS011;51382;53.180;15.414;2023-02-23T03:48:40;58.70;;;9.90;;
20161;SDS011;51382;53.180;15.414;2023-02-23T04:04:11;76.30;;;13.10;;
20161;SDS011;51382;53.180;15.414;2023-02-23T04:19:49;676.00;;;60.20;;
20161;SDS011;51382;53.180;15.414;2023-02-23T04:34:56;56.90;;;8.30;;
20161;SDS011;51382;53.180;15.414;2023-02-23T04:50:10;60.90;;;10.10;;
20161;SDS011;51382;53.180;15.414;2023-02-23T05:05:21;64.30;;;11.30;;
20161;SDS011;51382;53.180;15.414;2023-02-23T05:20:28;66.90;;;9.60;;
20161;SDS011;51382;53.180;15.414;2023-02-23T05:35:41;72.30;;;10.40;;
20161;SDS011;51382;53.180;15.414;2023-02-23T05:50:52;63.40;;;11.80;;
20161;SDS011;51382;53.180;15.414;2023-02-23T06:06:04;69.90;;;13.60;;
20161;SDS011;51382;53.180;15.414;2023-02-23T06:21:10;51.70;;;9.10;;
20161;SDS011;51382;53.180;15.414;2023-02-23T06:36:21;61.00;;;10.20;;
20161;SDS011;51382;53.180;15.414;2023-02-23T06:51:28;61.20;;;13.10;;
20161;SDS011;51382;53.180;15.414;2023-02-23T07:06:39;47.80;;;9.80;;
20161;SDS011;51382;53.180;15.414;2023-02-23T07:21:50;227.90;;;23.40;;
20161;SDS011;51382;53.180;15.414;2023-02-23T07:37:02;80.70;;;13.80;;
20161;SDS011;51382;53.180;15.414;2023-02-23T07:52:17;53.80;;;12.60;;
20161;SDS011;51382;53.180;15.414;2023-02-23T08:07:29;67.30;;;16.10;;
20161;SDS011;51382;53.180;15.414;2023-02-23T08:22:42;64.90;;;16.00;;
20161;SDS011;51382;53.180;15.414;2023-02-23T08:37:53;54.70;;;11.90;;
20161;SDS011;51382;53.180;15.414;2023-02-23T08:53:06;72.40;;;16.40;;
20161;SDS011;51382;53.180;15.414;2023-02-23T09:08:19;64.40;;;16.80;;
20161;SDS011;51382;53.180;15.414;2023-02-23T09:23:31;56.40;;;16.60;;
20161;SDS011;51382;53.180;15.414;2023-02-23T09:38:42;72.40;;;12.90;;
20161;SDS011;51382;53.180;15.414;2023-02-23T09:53:56;75.20;;;12.90;;
20161;SDS011;51382;53.180;15.414;2023-02-23T10:09:17;53.20;;;17.50;;
20161;SDS011;51382;53.180;15.414;2023-02-23T10:24:36;88.10;;;18.50;;
20161;SDS011;51382;53.180;15.414;2023-02-23T10:39:50;139.10;;;15.80;;
20161;SDS011;51382;53.180;15.414;2023-02-23T10:55:07;80.10;;;23.00;;
20161;SDS011;51382;53.180;15.414;2023-02-23T11:10:27;75.90;;;21.30;;
20161;SDS011;51382;53.180;15.414;2023-02-23T11:41:00;162.70;;;59.80;;
20161;SDS011;51382;53.180;15.414;2023-02-23T11:56:20;107.40;;;21.60;;
20161;SDS011;51382;53.180;15.414;2023-02-23T12:11:38;79.00;;;19.60;;
20161;SDS011;51382;53.180;15.414;2023-02-23T12:26:54;89.60;;;22.00;;
20161;SDS011;51382;53.180;15.414;2023-02-23T12:42:12;107.40;;;24.40;;
20161;SDS011;51382;53.180;15.414;2023-02-23T12:57:34;101.70;;;25.30;;
20161;SDS011;51382;53.180;15.414;2023-02-23T13:12:53;118.30;;;26.20;;
20161;SDS011;51382;53.180;15.414;2023-02-23T13:28:04;105.90;;;25.40;;
20161;SDS011;51382;53.180;15.414;2023-02-23T13:43:20;145.80;;;31.70;;
20161;SDS011;51382;53.180;15.414;2023-02-23T13:58:33;149.00;;;54.70;;
20161;SDS011;51382;53.180;15.414;2023-02-23T14:14:00;121.70;;;35.80;;
20161;SDS011;51382;53.180;15.414;2023-02-23T14:29:22;131.40;;;46.80;;
20161;SDS011;51382;53.180;15.414;2023-02-23T14:44:36;140.60;;;39.80;;
20161;SDS011;51382;53.180;15.414;2023-02-23T14:59:55;211.50;;;72.80;;
20161;SDS011;51382;53.180;15.414;2023-02-23T15:15:15;156.70;;;55.40;;
20161;SDS011;51382;53.180;15.414;2023-02-23T15:30:29;302.60;;;92.60;;
20161;SDS011;51382;53.180;15.414;2023-02-23T15:45:44;153.00;;;52.80;;
20161;SDS011;51382;53.180;15.414;2023-02-23T16:01:00;128.00;;;45.80;;
20161;SDS011;51382;53.180;15.414;2023-02-23T16:16:16;168.60;;;46.50;;
20161;SDS011;51382;53.180;15.414;2023-02-23T16:31:46;124.40;;;47.50;;
20161;SDS011;51382;53.180;15.414;2023-02-23T16:47:11;147.90;;;53.40;;
20161;SDS011;51382;53.180;15.414;2023-02-23T17:02:35;195.30;;;74.20;;
20161;SDS011;51382;53.180;15.414;2023-02-23T17:17:49;167.40;;;68.00;;
20161;SDS011;51382;53.180;15.414;2023-02-23T17:33:08;186.90;;;68.70;;
20161;SDS011;51382;53.180;15.414;2023-02-23T17:48:20;254.50;;;117.10;;
20161;SDS011;51382;53.180;15.414;2023-02-23T18:03:37;203.10;;;84.60;;
20161;SDS011;51382;53.180;15.414;2023-02-23T18:18:48;236.50;;;89.90;;
20161;SDS011;51382;53.180;15.414;2023-02-23T18:34:01;187.70;;;63.00;;
20161;SDS011;51382;53.180;15.414;2023-02-23T18:49:16;156.20;;;50.90;;
20161;SDS011;51382;53.180;15.414;2023-02-23T19:04:29;124.10;;;40.60;;
20161;SDS011;51382;53.180;15.414;2023-02-23T19:19:40;115.30;;;28.10;;
20161;SDS011;51382;53.180;15.414;2023-02-23T19:34:54;131.50;;;31.40;;
20161;SDS011;51382;53.180;15.414;2023-02-23T19:50:06;148.20;;;52.10;;
20161;SDS011;51382;53.180;15.414;2023-02-23T20:05:18;128.50;;;38.10;;
20161;SDS011;51382;53.180;15.414;2023-02-23T20:20:31;104.20;;;31.80;;
20161;SDS011;51382;53.180;15.414;2023-02-23T20:35:42;98.40;;;29.70;;
20161;SDS011;51382;53.180;15.414;2023-02-23T20:50:55;114.70;;;29.40;;
20161;SDS011;51382;53.180;15.414;2023-02-23T21:06:07;117.50;;;34.80;;
20161;SDS011;51382;53.180;15.414;2023-02-23T21:21:13;137.90;;;40.60;;
20161;SDS011;51382;53.180;15.414;2023-02-23T21:36:25;116.70;;;35.30;;
20161;SDS011;51382;53.180;15.414;2023-02-23T21:51:36;113.40;;;37.50;;
20161;SDS011;51382;53.180;15.414;2023-02-23T22:06:47;108.70;;;23.60;;
20161;SDS011;51382;53.180;15.414;2023-02-23T22:21:59;125.30;;;24.30;;
20161;SDS011;51382;53.180;15.414;2023-02-23T22:37:12;113.10;;;24.80;;
20161;SDS011;51382;53.180;15.414;2023-02-23T22:52:24;103.60;;;25.00;;
20161;SDS011;51382;53.180;15.414;2023-02-23T23:07:38;101.50;;;25.90;;
20161;SDS011;51382;53.180;15.414;2023-02-23T23:22:49;128.30;;;38.10;;
20161;SDS011;51382;53.180;15.414;2023-02-23T23:38:00;107.70;;;26.20;;
20161;SDS011;51382;53.180;15.414;2023-02-23T23:53:12;98.70;;;26.70;;
